sensor_id;sensor_type;location;lat;lon;timestamp;P1;durP1;ratioP1;P2;durP2;ratioP2
14789;SDS011;7486;51.010;10.366;2023-04-16T00:01:46;19.10;;;15.32;;
14789;SDS011;7486;51.010;10.366;2023-04-16T00:04:42;17.52;;;15.70;;
14789;SDS011;7486;51.010;10.366;2023-04-16T00:07:28;18.03;;;15.80;;
14789;SDS011;7486;51.010;10.366;2023-04-16T00:10:17;19.52;;;15.77;;
14789;SDS011;7486;51.010;10.366;2023-04-16T00:13:05;20.47;;;17.70;;
14789;SDS011;7486;51.010;10.366;2023-04-16T00:15:51;19.67;;;17.37;;
14789;SDS011;7486;51.010;10.366;2023-04-16T00:18:39;21.27;;;18.97;;
14789;SDS011;7486;51.010;10.366;2023-04-16T00:21:26;21.20;;;18.90;;
14789;SDS011;7486;51.010;10.366;2023-04-16T00:24:14;24.53;;;20.30;;
14789;SDS011;7486;51.010;10.366;2023-04-16T00:27:00;23.50;;;20.43;;
14789;SDS011;7486;51.010;10.366;2023-04-16T00:29:46;27.73;;;22.43;;
14789;SDS011;7486;51.010;10.366;2023-04-16T00:32:32;27.70;;;22.80;;
14789;SDS011;7486;51.010;10.366;2023-04-16T00:35:23;27.93;;;21.50;;
14789;SDS011;7486;51.010;10.366;2023-04-16T00:38:09;26.50;;;22.70;;
14789;SDS011;7486;51.010;10.366;2023-04-16T00:41:01;28.03;;;23.60;;
14789;SDS011;7486;51.010;10.366;2023-04-16T00:43:50;28.97;;;25.23;;
14789;SDS011;7486;51.010;10.366;2023-04-16T00:46:35;31.57;;;25.37;;
14789;SDS011;7486;51.010;10.366;2023-04-16T00:49:22;30.17;;;25.57;;
14789;SDS011;7486;51.010;10.366;2023-04-16T00:52:11;28.83;;;24.73;;
14789;SDS011;7486;51.010;10.366;2023-04-16T00:54:59;32.13;;;25.63;;
14789;SDS011;7486;51.010;10.366;2023-04-16T00:57:45;30.20;;;24.73;;
14789;SDS011;7486;51.010;10.366;2023-04-16T01:00:34;31.20;;;25.43;;
14789;SDS011;7486;51.010;10.366;2023-04-16T01:03:19;28.43;;;25.10;;
14789;SDS011;7486;51.010;10.366;2023-04-16T01:06:08;29.70;;;24.73;;
14789;SDS011;7486;51.010;10.366;2023-04-16T01:08:56;30.52;;;25.45;;
14789;SDS011;7486;51.010;10.366;2023-04-16T01:11:47;31.60;;;25.73;;
14789;SDS011;7486;51.010;10.366;2023-04-16T01:14:32;30.87;;;24.87;;
14789;SDS011;7486;51.010;10.366;2023-04-16T01:17:18;33.03;;;25.77;;
14789;SDS011;7486;51.010;10.366;2023-04-16T01:20:06;33.23;;;25.57;;
14789;SDS011;7486;51.010;10.366;2023-04-16T01:22:52;31.00;;;25.30;;
14789;SDS011;7486;51.010;10.366;2023-04-16T01:25:38;30.83;;;26.13;;
14789;SDS011;7486;51.010;10.366;2023-04-16T01:28:24;30.60;;;25.23;;
14789;SDS011;7486;51.010;10.366;2023-04-16T01:31:09;33.83;;;26.00;;
14789;SDS011;7486;51.010;10.366;2023-04-16T01:34:18;30.50;;;25.07;;
14789;SDS011;7486;51.010;10.366;2023-04-16T01:37:07;32.37;;;25.47;;
14789;SDS011;7486;51.010;10.366;2023-04-16T01:39:52;35.37;;;26.30;;
14789;SDS011;7486;51.010;10.366;2023-04-16T01:42:40;30.93;;;25.37;;
14789;SDS011;7486;51.010;10.366;2023-04-16T01:45:26;30.87;;;25.37;;
14789;SDS011;7486;51.010;10.366;2023-04-16T01:48:11;32.70;;;25.13;;
14789;SDS011;7486;51.010;10.366;2023-04-16T01:50:57;33.17;;;26.17;;
14789;SDS011;7486;51.010;10.366;2023-04-16T01:53:45;33.43;;;25.67;;
14789;SDS011;7486;51.010;10.366;2023-04-16T01:56:31;35.03;;;25.53;;
14789;SDS011;7486;51.010;10.366;2023-04-16T01:59:16;30.50;;;24.27;;
14789;SDS011;7486;51.010;10.366;2023-04-16T02:02:08;33.77;;;25.80;;
14789;SDS011;7486;51.010;10.366;2023-04-16T02:04:56;31.20;;;23.87;;
14789;SDS011;7486;51.010;10.366;2023-04-16T02:07:42;29.80;;;23.57;;
14789;SDS011;7486;51.010;10.366;2023-04-16T02:10:27;29.93;;;24.03;;
14789;SDS011;7486;51.010;10.366;2023-04-16T02:13:16;29.07;;;23.53;;
14789;SDS011;7486;51.010;10.366;2023-04-16T02:16:03;28.03;;;23.70;;
14789;SDS011;7486;51.010;10.366;2023-04-16T02:19:18;26.97;;;22.87;;
14789;SDS011;7486;51.010;10.366;2023-04-16T02:22:06;28.80;;;22.93;;
14789;SDS011;7486;51.010;10.366;2023-04-16T02:24:52;28.83;;;22.77;;
14789;SDS011;7486;51.010;10.366;2023-04-16T02:27:38;26.77;;;22.13;;
14789;SDS011;7486;51.010;10.366;2023-04-16T02:30:40;25.97;;;21.47;;
14789;SDS011;7486;51.010;10.366;2023-04-16T02:33:26;28.93;;;22.47;;
14789;SDS011;7486;51.010;10.366;2023-04-16T02:36:18;24.17;;;20.97;;
14789;SDS011;7486;51.010;10.366;2023-04-16T02:39:04;24.37;;;20.47;;
14789;SDS011;7486;51.010;10.366;2023-04-16T02:41:50;27.00;;;21.47;;
14789;SDS011;7486;51.010;10.366;2023-04-16T02:44:36;23.13;;;20.63;;
14789;SDS011;7486;51.010;10.366;2023-04-16T02:47:21;23.23;;;20.73;;
14789;SDS011;7486;51.010;10.366;2023-04-16T02:50:07;24.20;;;20.50;;
14789;SDS011;7486;51.010;10.366;2023-04-16T02:52:54;22.60;;;20.13;;
14789;SDS011;7486;51.010;10.366;2023-04-16T02:55:40;23.50;;;20.40;;
14789;SDS011;7486;51.010;10.366;2023-04-16T02:58:25;21.60;;;19.30;;
14789;SDS011;7486;51.010;10.366;2023-04-16T03:01:11;21.40;;;18.50;;
14789;SDS011;7486;51.010;10.366;2023-04-16T03:04:03;20.83;;;17.70;;
14789;SDS011;7486;51.010;10.366;2023-04-16T03:06:49;20.03;;;17.93;;
14789;SDS011;7486;51.010;10.366;2023-04-16T03:09:35;20.83;;;17.57;;
14789;SDS011;7486;51.010;10.366;2023-04-16T03:12:23;19.83;;;16.93;;
14789;SDS011;7486;51.010;10.366;2023-04-16T03:15:09;20.60;;;16.90;;
14789;SDS011;7486;51.010;10.366;2023-04-16T03:17:55;18.87;;;16.63;;
14789;SDS011;7486;51.010;10.366;2023-04-16T03:20:50;18.27;;;16.03;;
14789;SDS011;7486;51.010;10.366;2023-04-16T03:23:44;17.60;;;15.80;;
14789;SDS011;7486;51.010;10.366;2023-04-16T03:26:31;17.83;;;15.90;;
14789;SDS011;7486;51.010;10.366;2023-04-16T03:29:17;18.87;;;16.87;;
14789;SDS011;7486;51.010;10.366;2023-04-16T03:32:02;19.87;;;15.57;;
14789;SDS011;7486;51.010;10.366;2023-04-16T03:34:48;17.10;;;15.30;;
14789;SDS011;7486;51.010;10.366;2023-04-16T03:37:34;18.83;;;15.73;;
14789;SDS011;7486;51.010;10.366;2023-04-16T03:40:19;17.50;;;15.63;;
14789;SDS011;7486;51.010;10.366;2023-04-16T03:43:04;17.37;;;15.57;;
14789;SDS011;7486;51.010;10.366;2023-04-16T03:45:50;17.50;;;15.60;;
14789;SDS011;7486;51.010;10.366;2023-04-16T03:48:38;17.57;;;15.23;;
14789;SDS011;7486;51.010;10.366;2023-04-16T03:51:24;16.63;;;14.93;;
14789;SDS011;7486;51.010;10.366;2023-04-16T03:54:10;17.17;;;15.10;;
14789;SDS011;7486;51.010;10.366;2023-04-16T03:56:55;17.07;;;15.27;;
14789;SDS011;7486;51.010;10.366;2023-04-16T03:59:41;16.70;;;14.90;;
14789;SDS011;7486;51.010;10.366;2023-04-16T04:02:27;16.30;;;14.60;;
14789;SDS011;7486;51.010;10.366;2023-04-16T04:05:13;16.67;;;14.87;;
14789;SDS011;7486;51.010;10.366;2023-04-16T04:07:59;16.30;;;14.60;;
14789;SDS011;7486;51.010;10.366;2023-04-16T04:10:50;16.40;;;13.93;;
14789;SDS011;7486;51.010;10.366;2023-04-16T04:13:43;14.97;;;13.37;;
14789;SDS011;7486;51.010;10.366;2023-04-16T04:16:30;15.30;;;13.70;;
14789;SDS011;7486;51.010;10.366;2023-04-16T04:19:16;16.70;;;14.17;;
14789;SDS011;7486;51.010;10.366;2023-04-16T04:22:02;15.50;;;13.17;;
14789;SDS011;7486;51.010;10.366;2023-04-16T04:24:48;15.23;;;13.23;;
14789;SDS011;7486;51.010;10.366;2023-04-16T04:27:34;14.43;;;12.93;;
14789;SDS011;7486;51.010;10.366;2023-04-16T04:30:20;14.63;;;12.70;;
14789;SDS011;7486;51.010;10.366;2023-04-16T04:33:05;14.40;;;12.50;;
14789;SDS011;7486;51.010;10.366;2023-04-16T04:35:51;13.73;;;12.33;;
14789;SDS011;7486;51.010;10.366;2023-04-16T04:38:39;15.13;;;13.27;;
14789;SDS011;7486;51.010;10.366;2023-04-16T04:41:25;14.73;;;13.23;;
14789;SDS011;7486;51.010;10.366;2023-04-16T04:44:10;14.27;;;12.77;;
14789;SDS011;7486;51.010;10.366;2023-04-16T04:46:56;14.00;;;12.50;;
14789;SDS011;7486;51.010;10.366;2023-04-16T04:49:42;14.63;;;13.03;;
14789;SDS011;7486;51.010;10.366;2023-04-16T04:52:29;14.47;;;12.97;;
14789;SDS011;7486;51.010;10.366;2023-04-16T04:55:14;14.57;;;13.07;;
14789;SDS011;7486;51.010;10.366;2023-04-16T04:58:01;14.77;;;13.27;;
14789;SDS011;7486;51.010;10.366;2023-04-16T05:00:47;15.50;;;13.90;;
14789;SDS011;7486;51.010;10.366;2023-04-16T05:03:33;14.97;;;13.43;;
14789;SDS011;7486;51.010;10.366;2023-04-16T05:06:19;15.67;;;14.07;;
14789;SDS011;7486;51.010;10.366;2023-04-16T05:09:05;15.23;;;13.63;;
14789;SDS011;7486;51.010;10.366;2023-04-16T05:11:50;16.10;;;14.40;;
14789;SDS011;7486;51.010;10.366;2023-04-16T05:14:36;16.33;;;14.53;;
14789;SDS011;7486;51.010;10.366;2023-04-16T05:17:21;15.23;;;13.60;;
14789;SDS011;7486;51.010;10.366;2023-04-16T05:20:10;16.60;;;14.83;;
14789;SDS011;7486;51.010;10.366;2023-04-16T05:22:55;15.73;;;14.13;;
14789;SDS011;7486;51.010;10.366;2023-04-16T05:25:41;16.53;;;14.83;;
14789;SDS011;7486;51.010;10.366;2023-04-16T05:28:27;16.37;;;14.67;;
14789;SDS011;7486;51.010;10.366;2023-04-16T05:31:13;16.23;;;14.53;;
14789;SDS011;7486;51.010;10.366;2023-04-16T05:33:58;17.00;;;15.20;;
14789;SDS011;7486;51.010;10.366;2023-04-16T05:36:44;18.93;;;16.03;;
14789;SDS011;7486;51.010;10.366;2023-04-16T05:39:29;18.13;;;15.73;;
14789;SDS011;7486;51.010;10.366;2023-04-16T05:42:14;18.03;;;16.00;;
14789;SDS011;7486;51.010;10.366;2023-04-16T05:45:01;17.40;;;15.10;;
14789;SDS011;7486;51.010;10.366;2023-04-16T05:47:47;18.50;;;15.80;;
14789;SDS011;7486;51.010;10.366;2023-04-16T05:50:35;18.80;;;15.60;;
14789;SDS011;7486;51.010;10.366;2023-04-16T05:53:24;16.83;;;14.80;;
14789;SDS011;7486;51.010;10.366;2023-04-16T05:56:14;17.63;;;14.80;;
14789;SDS011;7486;51.010;10.366;2023-04-16T05:59:00;18.07;;;15.67;;
14789;SDS011;7486;51.010;10.366;2023-04-16T06:01:46;18.80;;;14.60;;
14789;SDS011;7486;51.010;10.366;2023-04-16T06:04:37;17.23;;;14.90;;
14789;SDS011;7486;51.010;10.366;2023-04-16T06:07:24;18.00;;;15.30;;
14789;SDS011;7486;51.010;10.366;2023-04-16T06:10:10;18.73;;;15.47;;
14789;SDS011;7486;51.010;10.366;2023-04-16T06:13:05;18.53;;;14.13;;
14789;SDS011;7486;51.010;10.366;2023-04-16T06:15:51;17.43;;;14.27;;
14789;SDS011;7486;51.010;10.366;2023-04-16T06:18:42;18.20;;;14.57;;
14789;SDS011;7486;51.010;10.366;2023-04-16T06:21:30;17.87;;;14.57;;
14789;SDS011;7486;51.010;10.366;2023-04-16T06:24:19;17.60;;;15.23;;
14789;SDS011;7486;51.010;10.366;2023-04-16T06:27:05;16.43;;;14.43;;
14789;SDS011;7486;51.010;10.366;2023-04-16T06:29:53;17.17;;;14.43;;
14789;SDS011;7486;51.010;10.366;2023-04-16T06:32:42;15.90;;;13.87;;
14789;SDS011;7486;51.010;10.366;2023-04-16T06:35:28;16.57;;;13.80;;
14789;SDS011;7486;51.010;10.366;2023-04-16T06:38:27;16.57;;;14.33;;
14789;SDS011;7486;51.010;10.366;2023-04-16T06:41:35;15.93;;;13.83;;
14789;SDS011;7486;51.010;10.366;2023-04-16T06:44:20;16.67;;;14.20;;
14789;SDS011;7486;51.010;10.366;2023-04-16T06:47:06;16.13;;;13.53;;
14789;SDS011;7486;51.010;10.366;2023-04-16T06:49:53;16.10;;;13.80;;
14789;SDS011;7486;51.010;10.366;2023-04-16T06:52:39;16.37;;;14.03;;
14789;SDS011;7486;51.010;10.366;2023-04-16T06:55:24;15.33;;;13.23;;
14789;SDS011;7486;51.010;10.366;2023-04-16T06:58:10;15.23;;;13.30;;
14789;SDS011;7486;51.010;10.366;2023-04-16T07:00:58;15.17;;;13.33;;
14789;SDS011;7486;51.010;10.366;2023-04-16T07:03:49;16.10;;;13.77;;
14789;SDS011;7486;51.010;10.366;2023-04-16T07:06:41;14.43;;;12.93;;
14789;SDS011;7486;51.010;10.366;2023-04-16T07:09:27;16.07;;;13.60;;
14789;SDS011;7486;51.010;10.366;2023-04-16T07:12:14;17.80;;;14.27;;
14789;SDS011;7486;51.010;10.366;2023-04-16T07:15:03;18.10;;;14.03;;
14789;SDS011;7486;51.010;10.366;2023-04-16T07:17:54;17.40;;;14.20;;
14789;SDS011;7486;51.010;10.366;2023-04-16T07:20:41;16.60;;;13.60;;
14789;SDS011;7486;51.010;10.366;2023-04-16T07:23:27;16.10;;;13.70;;
14789;SDS011;7486;51.010;10.366;2023-04-16T07:26:12;16.20;;;13.60;;
14789;SDS011;7486;51.010;10.366;2023-04-16T07:28:58;16.83;;;14.40;;
14789;SDS011;7486;51.010;10.366;2023-04-16T07:32:01;16.10;;;14.40;;
14789;SDS011;7486;51.010;10.366;2023-04-16T07:35:17;16.20;;;14.20;;
14789;SDS011;7486;51.010;10.366;2023-04-16T07:38:04;17.23;;;14.17;;
14789;SDS011;7486;51.010;10.366;2023-04-16T07:40:52;16.97;;;14.50;;
14789;SDS011;7486;51.010;10.366;2023-04-16T07:43:38;17.37;;;14.70;;
14789;SDS011;7486;51.010;10.366;2023-04-16T07:46:24;17.53;;;14.73;;
14789;SDS011;7486;51.010;10.366;2023-04-16T07:49:20;17.90;;;14.80;;
14789;SDS011;7486;51.010;10.366;2023-04-16T07:52:05;17.90;;;15.30;;
14789;SDS011;7486;51.010;10.366;2023-04-16T07:54:53;17.00;;;14.33;;
14789;SDS011;7486;51.010;10.366;2023-04-16T07:57:39;18.57;;;15.30;;
14789;SDS011;7486;51.010;10.366;2023-04-16T08:00:25;18.30;;;15.63;;
14789;SDS011;7486;51.010;10.366;2023-04-16T08:03:10;17.27;;;14.70;;
14789;SDS011;7486;51.010;10.366;2023-04-16T08:05:57;18.63;;;15.40;;
14789;SDS011;7486;51.010;10.366;2023-04-16T08:08:42;18.00;;;15.13;;
14789;SDS011;7486;51.010;10.366;2023-04-16T08:11:28;18.97;;;15.50;;
14789;SDS011;7486;51.010;10.366;2023-04-16T08:14:14;18.83;;;15.70;;
14789;SDS011;7486;51.010;10.366;2023-04-16T08:17:01;17.73;;;15.10;;
14789;SDS011;7486;51.010;10.366;2023-04-16T08:19:46;18.63;;;15.83;;
14789;SDS011;7486;51.010;10.366;2023-04-16T08:22:32;19.37;;;16.83;;
14789;SDS011;7486;51.010;10.366;2023-04-16T08:25:18;17.50;;;15.27;;
14789;SDS011;7486;51.010;10.366;2023-04-16T08:28:03;19.90;;;16.23;;
14789;SDS011;7486;51.010;10.366;2023-04-16T08:30:49;17.83;;;15.10;;
14789;SDS011;7486;51.010;10.366;2023-04-16T08:33:35;16.57;;;14.70;;
14789;SDS011;7486;51.010;10.366;2023-04-16T08:36:22;16.47;;;14.67;;
14789;SDS011;7486;51.010;10.366;2023-04-16T08:39:07;17.00;;;14.60;;
14789;SDS011;7486;51.010;10.366;2023-04-16T08:41:53;16.87;;;15.03;;
14789;SDS011;7486;51.010;10.366;2023-04-16T08:44:43;17.43;;;14.23;;
14789;SDS011;7486;51.010;10.366;2023-04-16T08:47:34;16.57;;;14.03;;
14789;SDS011;7486;51.010;10.366;2023-04-16T08:50:23;16.43;;;14.33;;
14789;SDS011;7486;51.010;10.366;2023-04-16T08:53:10;16.10;;;13.47;;
14789;SDS011;7486;51.010;10.366;2023-04-16T08:56:04;15.97;;;14.33;;
14789;SDS011;7486;51.010;10.366;2023-04-16T08:58:53;16.90;;;14.83;;
14789;SDS011;7486;51.010;10.366;2023-04-16T09:01:39;15.07;;;13.33;;
14789;SDS011;7486;51.010;10.366;2023-04-16T09:04:26;15.47;;;13.60;;
14789;SDS011;7486;51.010;10.366;2023-04-16T09:07:12;17.17;;;13.57;;
14789;SDS011;7486;51.010;10.366;2023-04-16T09:09:59;16.17;;;13.63;;
14789;SDS011;7486;51.010;10.366;2023-04-16T09:12:45;15.13;;;13.57;;
14789;SDS011;7486;51.010;10.366;2023-04-16T09:15:30;17.47;;;13.17;;
14789;SDS011;7486;51.010;10.366;2023-04-16T09:18:19;15.87;;;13.80;;
14789;SDS011;7486;51.010;10.366;2023-04-16T09:21:05;15.27;;;13.57;;
14789;SDS011;7486;51.010;10.366;2023-04-16T09:23:55;18.53;;;15.20;;
14789;SDS011;7486;51.010;10.366;2023-04-16T09:26:41;15.83;;;13.97;;
14789;SDS011;7486;51.010;10.366;2023-04-16T09:29:33;17.33;;;14.90;;
14789;SDS011;7486;51.010;10.366;2023-04-16T09:32:23;33.60;;;29.53;;
14789;SDS011;7486;51.010;10.366;2023-04-16T09:35:10;25.17;;;21.13;;
14789;SDS011;7486;51.010;10.366;2023-04-16T09:37:56;22.23;;;17.43;;
14789;SDS011;7486;51.010;10.366;2023-04-16T09:40:42;19.53;;;16.27;;
14789;SDS011;7486;51.010;10.366;2023-04-16T09:43:27;19.23;;;17.13;;
14789;SDS011;7486;51.010;10.366;2023-04-16T09:46:12;18.03;;;16.13;;
14789;SDS011;7486;51.010;10.366;2023-04-16T09:49:03;20.47;;;17.43;;
14789;SDS011;7486;51.010;10.366;2023-04-16T09:51:53;19.47;;;16.53;;
14789;SDS011;7486;51.010;10.366;2023-04-16T09:54:39;19.73;;;15.93;;
14789;SDS011;7486;51.010;10.366;2023-04-16T09:57:30;16.80;;;14.93;;
14789;SDS011;7486;51.010;10.366;2023-04-16T10:00:17;18.73;;;16.10;;
14789;SDS011;7486;51.010;10.366;2023-04-16T10:03:06;20.10;;;16.80;;
14789;SDS011;7486;51.010;10.366;2023-04-16T10:05:55;21.20;;;17.80;;
14789;SDS011;7486;51.010;10.366;2023-04-16T10:08:47;21.47;;;16.70;;
14789;SDS011;7486;51.010;10.366;2023-04-16T10:11:34;19.47;;;15.80;;
14789;SDS011;7486;51.010;10.366;2023-04-16T10:14:20;20.10;;;16.67;;
14789;SDS011;7486;51.010;10.366;2023-04-16T10:17:06;20.00;;;15.63;;
14789;SDS011;7486;51.010;10.366;2023-04-16T10:19:53;39.03;;;33.37;;
14789;SDS011;7486;51.010;10.366;2023-04-16T10:22:39;36.40;;;32.57;;
14789;SDS011;7486;51.010;10.366;2023-04-16T10:25:25;24.73;;;21.40;;
14789;SDS011;7486;51.010;10.366;2023-04-16T10:28:12;29.77;;;25.57;;
14789;SDS011;7486;51.010;10.366;2023-04-16T10:31:00;22.83;;;18.13;;
14789;SDS011;7486;51.010;10.366;2023-04-16T10:33:47;23.63;;;19.33;;
14789;SDS011;7486;51.010;10.366;2023-04-16T10:36:37;22.23;;;17.83;;
14789;SDS011;7486;51.010;10.366;2023-04-16T10:39:24;20.87;;;16.77;;
14789;SDS011;7486;51.010;10.366;2023-04-16T10:42:14;20.67;;;16.80;;
14789;SDS011;7486;51.010;10.366;2023-04-16T10:44:59;18.73;;;15.83;;
14789;SDS011;7486;51.010;10.366;2023-04-16T10:47:45;17.77;;;14.97;;
14789;SDS011;7486;51.010;10.366;2023-04-16T10:50:34;34.17;;;29.60;;
14789;SDS011;7486;51.010;10.366;2023-04-16T10:53:24;53.67;;;45.40;;
14789;SDS011;7486;51.010;10.366;2023-04-16T10:56:12;42.90;;;38.40;;
14789;SDS011;7486;51.010;10.366;2023-04-16T10:58:58;44.47;;;40.00;;
14789;SDS011;7486;51.010;10.366;2023-04-16T11:01:45;30.27;;;27.27;;
14789;SDS011;7486;51.010;10.366;2023-04-16T11:04:33;18.07;;;15.37;;
14789;SDS011;7486;51.010;10.366;2023-04-16T11:07:33;18.50;;;15.80;;
14789;SDS011;7486;51.010;10.366;2023-04-16T11:10:19;18.90;;;16.90;;
14789;SDS011;7486;51.010;10.366;2023-04-16T11:13:04;19.67;;;17.60;;
14789;SDS011;7486;51.010;10.366;2023-04-16T11:15:50;15.73;;;14.03;;
14789;SDS011;7486;51.010;10.366;2023-04-16T11:18:40;15.87;;;12.23;;
14789;SDS011;7486;51.010;10.366;2023-04-16T11:21:35;13.93;;;12.07;;
14789;SDS011;7486;51.010;10.366;2023-04-16T11:24:21;14.70;;;11.63;;
14789;SDS011;7486;51.010;10.366;2023-04-16T11:27:10;13.87;;;11.87;;
14789;SDS011;7486;51.010;10.366;2023-04-16T11:29:58;15.00;;;12.20;;
14789;SDS011;7486;51.010;10.366;2023-04-16T11:32:48;13.40;;;11.27;;
14789;SDS011;7486;51.010;10.366;2023-04-16T11:35:34;13.20;;;11.33;;
14789;SDS011;7486;51.010;10.366;2023-04-16T11:38:20;13.90;;;11.20;;
14789;SDS011;7486;51.010;10.366;2023-04-16T11:41:19;14.53;;;10.70;;
14789;SDS011;7486;51.010;10.366;2023-04-16T11:47:09;12.47;;;11.03;;
14789;SDS011;7486;51.010;10.366;2023-04-16T11:49:56;13.37;;;10.83;;
14789;SDS011;7486;51.010;10.366;2023-04-16T11:52:42;12.47;;;10.57;;
14789;SDS011;7486;51.010;10.366;2023-04-16T11:55:28;12.23;;;10.43;;
14789;SDS011;7486;51.010;10.366;2023-04-16T11:58:13;12.03;;;9.97;;
14789;SDS011;7486;51.010;10.366;2023-04-16T12:00:59;11.03;;;9.87;;
14789;SDS011;7486;51.010;10.366;2023-04-16T12:03:46;12.47;;;10.17;;
14789;SDS011;7486;51.010;10.366;2023-04-16T12:06:31;11.50;;;10.30;;
14789;SDS011;7486;51.010;10.366;2023-04-16T12:09:23;12.67;;;9.80;;
14789;SDS011;7486;51.010;10.366;2023-04-16T12:15:12;10.07;;;8.93;;
14789;SDS011;7486;51.010;10.366;2023-04-16T12:18:07;11.20;;;9.27;;
14789;SDS011;7486;51.010;10.366;2023-04-16T12:20:53;9.13;;;8.23;;
14789;SDS011;7486;51.010;10.366;2023-04-16T12:23:39;9.10;;;7.87;;
14789;SDS011;7486;51.010;10.366;2023-04-16T12:26:25;9.97;;;8.10;;
14789;SDS011;7486;51.010;10.366;2023-04-16T12:29:15;10.18;;;8.15;;
14789;SDS011;7486;51.010;10.366;2023-04-16T12:32:06;9.67;;;8.07;;
14789;SDS011;7486;51.010;10.366;2023-04-16T12:35:07;9.13;;;7.83;;
14789;SDS011;7486;51.010;10.366;2023-04-16T12:37:55;10.23;;;7.90;;
14789;SDS011;7486;51.010;10.366;2023-04-16T12:40:41;9.43;;;7.30;;
14789;SDS011;7486;51.010;10.366;2023-04-16T12:43:27;9.20;;;7.40;;
14789;SDS011;7486;51.010;10.366;2023-04-16T12:46:12;8.07;;;7.13;;
14789;SDS011;7486;51.010;10.366;2023-04-16T12:48:58;8.30;;;7.40;;
14789;SDS011;7486;51.010;10.366;2023-04-16T12:51:43;7.83;;;6.93;;
14789;SDS011;7486;51.010;10.366;2023-04-16T12:54:29;7.70;;;6.57;;
14789;SDS011;7486;51.010;10.366;2023-04-16T12:57:16;7.20;;;6.43;;
14789;SDS011;7486;51.010;10.366;2023-04-16T13:00:02;7.00;;;6.30;;
14789;SDS011;7486;51.010;10.366;2023-04-16T13:02:48;8.63;;;7.60;;
14789;SDS011;7486;51.010;10.366;2023-04-16T13:05:33;6.80;;;6.10;;
14789;SDS011;7486;51.010;10.366;2023-04-16T13:08:19;6.50;;;5.83;;
14789;SDS011;7486;51.010;10.366;2023-04-16T13:11:04;6.70;;;6.00;;
14789;SDS011;7486;51.010;10.366;2023-04-16T13:13:51;5.97;;;5.37;;
14789;SDS011;7486;51.010;10.366;2023-04-16T13:16:36;6.23;;;5.33;;
14789;SDS011;7486;51.010;10.366;2023-04-16T13:19:22;6.47;;;5.67;;
14789;SDS011;7486;51.010;10.366;2023-04-16T13:22:08;7.00;;;6.30;;
14789;SDS011;7486;51.010;10.366;2023-04-16T13:24:54;8.13;;;6.53;;
14789;SDS011;7486;51.010;10.366;2023-04-16T13:27:39;7.43;;;6.67;;
14789;SDS011;7486;51.010;10.366;2023-04-16T13:30:26;7.80;;;7.00;;
14789;SDS011;7486;51.010;10.366;2023-04-16T13:33:11;8.00;;;7.10;;
14789;SDS011;7486;51.010;10.366;2023-04-16T13:35:57;9.00;;;7.73;;
14789;SDS011;7486;51.010;10.366;2023-04-16T13:38:43;9.48;;;7.78;;
14789;SDS011;7486;51.010;10.366;2023-04-16T13:41:28;9.60;;;8.27;;
14789;SDS011;7486;51.010;10.366;2023-04-16T13:44:13;10.00;;;8.50;;
14789;SDS011;7486;51.010;10.366;2023-04-16T13:46:59;11.03;;;9.70;;
14789;SDS011;7486;51.010;10.366;2023-04-16T13:49:45;11.80;;;9.23;;
14789;SDS011;7486;51.010;10.366;2023-04-16T13:52:30;11.10;;;8.93;;
14789;SDS011;7486;51.010;10.366;2023-04-16T13:55:15;10.53;;;9.33;;
14789;SDS011;7486;51.010;10.366;2023-04-16T13:58:01;11.63;;;9.60;;
14789;SDS011;7486;51.010;10.366;2023-04-16T14:00:47;11.60;;;9.60;;
14789;SDS011;7486;51.010;10.366;2023-04-16T14:03:33;11.27;;;9.33;;
14789;SDS011;7486;51.010;10.366;2023-04-16T14:06:18;10.73;;;9.52;;
14789;SDS011;7486;51.010;10.366;2023-04-16T14:09:04;12.32;;;9.40;;
14789;SDS011;7486;51.010;10.366;2023-04-16T14:11:49;11.37;;;9.70;;
14789;SDS011;7486;51.010;10.366;2023-04-16T14:14:35;11.17;;;9.30;;
14789;SDS011;7486;51.010;10.366;2023-04-16T14:17:21;12.30;;;10.07;;
14789;SDS011;7486;51.010;10.366;2023-04-16T14:20:07;13.03;;;10.33;;
14789;SDS011;7486;51.010;10.366;2023-04-16T14:22:53;12.33;;;10.70;;
14789;SDS011;7486;51.010;10.366;2023-04-16T14:25:38;11.48;;;10.27;;
14789;SDS011;7486;51.010;10.366;2023-04-16T14:28:24;12.67;;;11.20;;
14789;SDS011;7486;51.010;10.366;2023-04-16T14:31:09;44.38;;;38.70;;
14789;SDS011;7486;51.010;10.366;2023-04-16T14:33:54;36.30;;;29.88;;
14789;SDS011;7486;51.010;10.366;2023-04-16T14:36:40;17.47;;;14.53;;
14789;SDS011;7486;51.010;10.366;2023-04-16T14:39:25;17.27;;;13.53;;
14789;SDS011;7486;51.010;10.366;2023-04-16T14:42:11;15.27;;;12.57;;
14789;SDS011;7486;51.010;10.366;2023-04-16T14:44:56;13.60;;;11.93;;
14789;SDS011;7486;51.010;10.366;2023-04-16T14:47:41;14.80;;;12.67;;
14789;SDS011;7486;51.010;10.366;2023-04-16T14:50:27;13.73;;;12.13;;
14789;SDS011;7486;51.010;10.366;2023-04-16T14:53:13;15.73;;;13.00;;
14789;SDS011;7486;51.010;10.366;2023-04-16T14:55:58;14.87;;;12.07;;
14789;SDS011;7486;51.010;10.366;2023-04-16T14:58:43;23.63;;;16.57;;
14789;SDS011;7486;51.010;10.366;2023-04-16T15:01:29;24.57;;;16.47;;
14789;SDS011;7486;51.010;10.366;2023-04-16T15:04:14;27.37;;;16.80;;
14789;SDS011;7486;51.010;10.366;2023-04-16T15:07:00;95.07;;;27.38;;
14789;SDS011;7486;51.010;10.366;2023-04-16T15:09:45;15.73;;;13.47;;
14789;SDS011;7486;51.010;10.366;2023-04-16T15:12:30;16.10;;;13.43;;
14789;SDS011;7486;51.010;10.366;2023-04-16T15:15:15;16.77;;;13.43;;
14789;SDS011;7486;51.010;10.366;2023-04-16T15:18:03;16.20;;;13.38;;
14789;SDS011;7486;51.010;10.366;2023-04-16T15:20:50;16.50;;;13.15;;
14789;SDS011;7486;51.010;10.366;2023-04-16T15:23:36;13.80;;;11.67;;
14789;SDS011;7486;51.010;10.366;2023-04-16T15:26:22;14.80;;;12.65;;
14789;SDS011;7486;51.010;10.366;2023-04-16T15:29:08;16.17;;;12.45;;
14789;SDS011;7486;51.010;10.366;2023-04-16T15:31:55;13.70;;;11.75;;
14789;SDS011;7486;51.010;10.366;2023-04-16T15:34:41;14.53;;;11.97;;
14789;SDS011;7486;51.010;10.366;2023-04-16T15:37:27;14.02;;;12.10;;
14789;SDS011;7486;51.010;10.366;2023-04-16T15:40:14;16.88;;;12.70;;
14789;SDS011;7486;51.010;10.366;2023-04-16T15:43:00;14.65;;;11.85;;
14789;SDS011;7486;51.010;10.366;2023-04-16T15:45:46;15.27;;;12.63;;
14789;SDS011;7486;51.010;10.366;2023-04-16T15:48:33;15.25;;;12.55;;
14789;SDS011;7486;51.010;10.366;2023-04-16T15:51:19;16.17;;;12.90;;
14789;SDS011;7486;51.010;10.366;2023-04-16T15:54:07;15.38;;;12.85;;
14789;SDS011;7486;51.010;10.366;2023-04-16T15:56:53;15.23;;;13.20;;
14789;SDS011;7486;51.010;10.366;2023-04-16T15:59:39;13.95;;;12.32;;
14789;SDS011;7486;51.010;10.366;2023-04-16T16:02:25;14.30;;;12.43;;
14789;SDS011;7486;51.010;10.366;2023-04-16T16:05:12;15.18;;;12.13;;
14789;SDS011;7486;51.010;10.366;2023-04-16T16:08:01;13.43;;;11.50;;
14789;SDS011;7486;51.010;10.366;2023-04-16T16:10:47;14.85;;;12.18;;
14789;SDS011;7486;51.010;10.366;2023-04-16T16:13:33;13.88;;;11.55;;
14789;SDS011;7486;51.010;10.366;2023-04-16T16:16:26;14.27;;;12.07;;
14789;SDS011;7486;51.010;10.366;2023-04-16T16:19:13;14.07;;;12.13;;
14789;SDS011;7486;51.010;10.366;2023-04-16T16:21:59;14.63;;;11.40;;
14789;SDS011;7486;51.010;10.366;2023-04-16T16:24:46;13.57;;;11.73;;
14789;SDS011;7486;51.010;10.366;2023-04-16T16:27:33;12.63;;;11.23;;